• Join FlightAware (Why Join?)
  • Login
  • US Flag 
12:53PM EDT


 

Airport Tracker/Info


-or-


 

Live Flight TrackerFlight Track Log ✈ PDT4314 ✈ 24-Oct-2013 ✈ KBGM - KPHL

Flight Track Log - Related Links

Times and Time Zones

All times are in EDT time to prevent confusion due to time zone crossing. See the PDT4314 flight status page for this flight to view local times or setup timezone preferences in your user account.

Time Position Orientation Groundspeed Altitude Reporting Facility
EDT Latitude Longitude Course Direction KTS MPH feet Rate Location/Type
05:57PM 42.0596 -75.9309 180° South  Level Estimated
05:58PM 42.0086 -75.9313 180° South  Level FlightAware Approximate
05:59PM 41.9576 -75.9317 180° South  Level FlightAware Approximate
06:00PM 41.9065 -75.9321 180° South  Level FlightAware Approximate
06:01PM 41.8571 -75.9148 154° Southeast  Level Estimated
06:02PM 41.8062 -75.9100 176° South  Level FlightAware Approximate
06:03PM 41.7569 -75.8924 160° South  Level Estimated
06:04PM 41.7075 -75.8749 159° South  Level Estimated
06:05PM 41.6583 -75.8570 165° South  Level FlightAware Approximate
06:06PM 41.6090 -75.8392 165° South  Level FlightAware Approximate
06:07PM 41.5596 -75.8218 153° Southeast  Level Estimated
06:08PM 41.5103 -75.8044 161° South  Level Estimated
06:09PM 41.4625 -75.7805 160° South  Level FlightAware Approximate
06:10PM 41.4146 -75.7567 160° South  Level FlightAware Approximate
06:11PM 41.3668 -75.7330 160° South  Level FlightAware Approximate
06:12PM 41.3173 -75.7163 162° South  Level Estimated
06:13PM 41.2692 -75.6935 160° South  Level FlightAware Approximate
06:14PM 41.2211 -75.6708 160° South  Level FlightAware Approximate
06:15PM 41.1730 -75.6481 160° South  Level FlightAware Approximate
06:16PM 41.1249 -75.6254 160° South  Level FlightAware Approximate
06:17PM 41.0753 -75.6099 159° South  Level Estimated
06:18PM 41.0256 -75.5944 163° South  Level Estimated
06:19PM 40.9775 -75.5718 160° South  Level FlightAware Approximate
06:20PM 40.9293 -75.5492 161° South  Level FlightAware Approximate
06:20PM 40.7000 -75.4500 181° South 249 287 5,000  Level Philadelphia TRACON
06:20PM 40.6500 -75.4667 194° South 247 284 5,000  Level Philadelphia TRACON
06:21PM 40.8812 -75.5267 161° South  Level FlightAware Approximate
06:21PM 40.5833 -75.4333 159° South 246 283 5,000  Level Philadelphia TRACON
06:22PM 40.8331 -75.5042 161° South  Level FlightAware Approximate
06:22PM 40.5167 -75.4167 169° South 246 283 5,000  Level Philadelphia TRACON
06:23PM 40.7831 -75.4903 190° South  Level Estimated
06:23PM 40.4500 -75.3833 159° South 242 278 5,000  Level Philadelphia TRACON
06:24PM 40.7321 -75.4921 181° South  Level FlightAware Approximate
06:24PM 40.3833 -75.3667 169° South 235 270 5,000  Level Philadelphia TRACON
06:25PM 40.6811 -75.4938 181° South  Level FlightAware Approximate
06:25PM 40.3333 -75.3500 166° South 226 260 5,000  Level Philadelphia TRACON
06:26PM 40.2667 -75.3167 159° South 232 267 4,600 -720 Descending Philadelphia TRACON
06:27PM 40.2167 -75.2667 143° Southeast 261 300 3,600 -840 Descending Philadelphia TRACON
06:28PM 40.1667 -75.2167 143° Southeast 238 274 3,000 -300 Descending Philadelphia TRACON
06:29PM 40.1000 -75.1667 150° Southeast 229 264 3,000  Level Philadelphia TRACON
06:30PM 40.0500 -75.1167 143° Southeast 219 252 3,000  Level Philadelphia TRACON
06:31PM 40.0000 -75.0833 153° Southeast 207 238 3,000 -540 Level Philadelphia TRACON
06:32PM 39.9500 -75.0667 166° South 190 219 2,000 -480 Descending Philadelphia TRACON
06:33PM 39.9167 -75.0833 201° Southwest 146 168 2,000 -240 Level Philadelphia TRACON
06:34PM 39.9000 -75.1333 247° West 134 154 1,600 -600 Descending Philadelphia TRACON
06:35PM 39.9000 -75.1667 270° West 97 112 900 -660 Descending Philadelphia TRACON
06:36PM 39.8833 -75.2000 237° Southwest 106 122 300 -600 Descending Philadelphia TRACON